Time;durP1;ratioP1;P1;durP2;ratioP2;P2;SDS_P1;SDS_P2;PMS_P1;PMS_P2;Temp;Humidity;BMP_temperature;BMP_pressure;BME280_temperature;BME280_humidity;BME280_pressure;Samples;Min_cycle;Max_cycle;Signal;HPM_P1;HPM_P2
2023/07/12 00:00:44;;;;;;;;;1.00;1.00;;;;;;;;5037407;28;45329;-71
2023/07/12 00:03:10;;;;;;;;;1.50;1.50;;;;;;;;5037275;28;45409;-71
2023/07/12 00:05:35;;;;;;;;;1.25;1.25;;;;;;;;5035141;28;47764;-71
2023/07/12 00:08:00;;;;;;;;;1.50;1.50;;;;;;;;5037183;28;45437;-72
2023/07/12 00:10:29;;;;;;;;;3.50;2.50;;;;;;;;5037374;28;45397;-71
2023/07/12 00:12:54;;;;;;;;;1.00;1.00;;;;;;;;5036936;28;45470;-72
2023/07/12 00:15:24;;;;;;;;;0.25;0.25;;;;;;;;5036389;28;46271;-71
2023/07/12 00:17:51;;;;;;;;;1.00;1.00;;;;;;;;5036648;28;45413;-71
2023/07/12 00:20:21;;;;;;;;;1.25;1.25;;;;;;;;5037027;28;45490;-71
2023/07/12 00:22:47;;;;;;;;;1.00;1.00;;;;;;;;5037079;28;45524;-72
2023/07/12 00:25:16;;;;;;;;;1.00;1.00;;;;;;;;5036783;28;47132;-76
2023/07/12 00:27:43;;;;;;;;;1.25;1.00;;;;;;;;5036732;28;45492;-71
2023/07/12 00:30:34;;;;;;;;;1.00;1.00;;;;;;;;5035169;28;45401;-72
2023/07/12 00:33:03;;;;;;;;;2.00;0.75;;;;;;;;5033546;28;45328;-71
2023/07/12 00:35:29;;;;;;;;;1.00;1.00;;;;;;;;5036665;28;46318;-72
2023/07/12 00:37:56;;;;;;;;;1.00;1.00;;;;;;;;5036911;28;45343;-71
2023/07/12 00:40:40;;;;;;;;;1.00;1.00;;;;;;;;5036778;28;45303;-71
2023/07/12 00:43:16;;;;;;;;;1.50;1.50;;;;;;;;5036842;28;45334;-71
2023/07/12 00:45:43;;;;;;;;;3.00;1.25;;;;;;;;5036161;28;45424;-71
2023/07/12 00:48:12;;;;;;;;;0.50;0.50;;;;;;;;5036556;28;45344;-71
2023/07/12 00:50:37;;;;;;;;;1.75;1.75;;;;;;;;5036578;28;45339;-70
2023/07/12 00:53:03;;;;;;;;;0.25;0.25;;;;;;;;5036586;28;45289;-71
2023/07/12 00:55:47;;;;;;;;;1.00;1.00;;;;;;;;5036368;28;45363;-71
2023/07/12 00:58:12;;;;;;;;;1.75;1.75;;;;;;;;5036461;28;45396;-71
2023/07/12 01:00:37;;;;;;;;;1.00;1.00;;;;;;;;5036799;28;45304;-73
2023/07/12 01:03:04;;;;;;;;;4.00;3.00;;;;;;;;5036624;28;45473;-73
2023/07/12 01:05:30;;;;;;;;;1.00;1.00;;;;;;;;5036472;28;45525;-72
2023/07/12 01:07:55;;;;;;;;;1.75;0.00;;;;;;;;5036446;28;45335;-72
2023/07/12 01:10:20;;;;;;;;;2.00;1.00;;;;;;;;5036985;28;45352;-72
2023/07/12 01:12:46;;;;;;;;;1.75;0.50;;;;;;;;5037017;28;45486;-72
2023/07/12 01:15:11;;;;;;;;;0.25;0.25;;;;;;;;5036445;28;45296;-72
2023/07/12 01:17:37;;;;;;;;;0.25;0.25;;;;;;;;5036818;28;45285;-72
2023/07/12 01:20:03;;;;;;;;;1.50;1.00;;;;;;;;5037324;28;45229;-71
2023/07/12 01:22:29;;;;;;;;;1.75;1.00;;;;;;;;5034754;28;45257;-70
2023/07/12 01:24:54;;;;;;;;;1.00;1.00;;;;;;;;5035921;28;46809;-70
2023/07/12 01:27:21;;;;;;;;;0.75;0.00;;;;;;;;5036670;28;45320;-71
2023/07/12 01:29:46;;;;;;;;;1.25;1.00;;;;;;;;5036325;28;45433;-73
2023/07/12 01:32:11;;;;;;;;;1.50;0.00;;;;;;;;5035875;28;45529;-72
2023/07/12 01:34:37;;;;;;;;;2.00;0.00;;;;;;;;5035803;28;45504;-72
2023/07/12 01:37:04;;;;;;;;;0.00;0.00;;;;;;;;5035992;28;45545;-72
2023/07/12 01:39:29;;;;;;;;;0.00;0.00;;;;;;;;5035986;28;45533;-72
2023/07/12 01:41:55;;;;;;;;;0.25;0.00;;;;;;;;5035938;28;45475;-73
2023/07/12 01:44:20;;;;;;;;;0.50;0.00;;;;;;;;5035786;28;45636;-73
2023/07/12 01:46:45;;;;;;;;;0.00;0.00;;;;;;;;5035639;28;45301;-72
2023/07/12 01:49:11;;;;;;;;;0.75;0.00;;;;;;;;5036070;28;45313;-72
2023/07/12 01:51:36;;;;;;;;;0.00;0.00;;;;;;;;5036023;28;45402;-73
2023/07/12 01:54:01;;;;;;;;;0.00;0.00;;;;;;;;5035294;28;45390;-72
2023/07/12 01:56:27;;;;;;;;;0.00;0.00;;;;;;;;5035771;28;45428;-73
2023/07/12 01:58:52;;;;;;;;;0.00;0.00;;;;;;;;5034972;28;45273;-72
2023/07/12 02:01:17;;;;;;;;;0.00;0.00;;;;;;;;5035695;28;45281;-72
2023/07/12 02:03:42;;;;;;;;;0.00;0.00;;;;;;;;5033960;28;47681;-73
2023/07/12 02:06:08;;;;;;;;;0.00;0.00;;;;;;;;5035411;28;45391;-73
2023/07/12 02:08:33;;;;;;;;;0.00;0.00;;;;;;;;5035531;28;45477;-73
2023/07/12 02:10:58;;;;;;;;;0.00;0.00;;;;;;;;5035522;28;45314;-73
2023/07/12 02:13:23;;;;;;;;;1.00;0.00;;;;;;;;5035317;28;45458;-72
2023/07/12 02:15:49;;;;;;;;;0.00;0.00;;;;;;;;5035405;28;45402;-72
2023/07/12 02:18:14;;;;;;;;;0.00;0.00;;;;;;;;5035763;28;45324;-73
2023/07/12 02:20:39;;;;;;;;;0.00;0.00;;;;;;;;5035456;28;45514;-73
2023/07/12 02:23:05;;;;;;;;;0.00;0.00;;;;;;;;5033826;28;47430;-73
2023/07/12 02:25:30;;;;;;;;;0.00;0.00;;;;;;;;5035055;28;45401;-73
2023/07/12 02:27:55;;;;;;;;;1.00;0.00;;;;;;;;5035279;28;45376;-73
2023/07/12 02:30:25;;;;;;;;;0.00;0.00;;;;;;;;5035507;28;45436;-73
2023/07/12 02:32:50;;;;;;;;;0.25;0.25;;;;;;;;5032476;28;45880;-73
2023/07/12 02:35:16;;;;;;;;;0.00;0.00;;;;;;;;5034712;28;45345;-73
2023/07/12 02:37:42;;;;;;;;;0.00;0.00;;;;;;;;5035012;28;45351;-73
2023/07/12 02:40:08;;;;;;;;;0.00;0.00;;;;;;;;5035250;28;45428;-73
2023/07/12 02:42:33;;;;;;;;;1.00;0.00;;;;;;;;5034830;28;46982;-73
2023/07/12 02:44:58;;;;;;;;;1.25;0.00;;;;;;;;5034716;28;45370;-73
2023/07/12 02:47:24;;;;;;;;;0.00;0.00;;;;;;;;5033679;28;45402;-73
2023/07/12 02:49:49;;;;;;;;;1.25;1.25;;;;;;;;5035232;28;45257;-73
2023/07/12 02:52:15;;;;;;;;;0.00;0.00;;;;;;;;5033392;28;48370;-73
2023/07/12 02:54:40;;;;;;;;;0.00;0.00;;;;;;;;5034616;28;45430;-72
2023/07/12 02:57:07;;;;;;;;;0.00;0.00;;;;;;;;5035177;28;45549;-73
2023/07/12 02:59:32;;;;;;;;;0.00;0.00;;;;;;;;5034829;28;45620;-73
2023/07/12 03:01:57;;;;;;;;;0.00;0.00;;;;;;;;5034591;28;45402;-73
2023/07/12 03:04:23;;;;;;;;;0.00;0.00;;;;;;;;5034946;28;45366;-73
2023/07/12 03:06:48;;;;;;;;;0.00;0.00;;;;;;;;5033446;28;45619;-73
2023/07/12 03:09:14;;;;;;;;;0.25;0.25;;;;;;;;5044607;28;45332;-73
2023/07/12 03:11:39;;;;;;;;;0.50;0.00;;;;;;;;5053962;28;29737;-73
2023/07/12 03:14:04;;;;;;;;;0.00;0.00;;;;;;;;5053962;28;28447;-73
2023/07/12 03:16:30;;;;;;;;;1.00;0.50;;;;;;;;5054179;28;28417;-73
2023/07/12 03:18:56;;;;;;;;;1.00;0.00;;;;;;;;5054362;28;28549;-73
2023/07/12 03:21:21;;;;;;;;;0.00;0.00;;;;;;;;5053008;28;44704;-73
2023/07/12 03:23:47;;;;;;;;;1.00;1.00;;;;;;;;5055216;28;28462;-72
2023/07/12 03:26:12;;;;;;;;;0.00;0.00;;;;;;;;5061802;28;45352;-73
2023/07/12 03:28:37;;;;;;;;;0.50;0.50;;;;;;;;5072553;28;8823;-72
2023/07/12 03:31:04;;;;;;;;;1.75;0.25;;;;;;;;5073869;28;8801;-73
2023/07/12 03:33:30;;;;;;;;;1.00;1.00;;;;;;;;5072168;28;10180;-72
2023/07/12 03:35:55;;;;;;;;;0.00;0.00;;;;;;;;5073090;28;9945;-73
2023/07/12 03:38:24;;;;;;;;;0.00;0.00;;;;;;;;5073760;28;8804;-72
2023/07/12 03:40:50;;;;;;;;;0.75;0.75;;;;;;;;5073576;28;8780;-73
2023/07/12 03:43:15;;;;;;;;;4.00;0.75;;;;;;;;5073538;28;10886;-73
2023/07/12 03:45:42;;;;;;;;;1.00;0.00;;;;;;;;5073505;28;8812;-73
2023/07/12 03:48:07;;;;;;;;;0.50;0.50;;;;;;;;5073598;28;8785;-73
2023/07/12 03:50:33;;;;;;;;;1.50;0.50;;;;;;;;5073333;28;10074;-73
2023/07/12 03:52:58;;;;;;;;;1.00;1.00;;;;;;;;5073397;28;8831;-73
2023/07/12 03:55:23;;;;;;;;;2.00;2.00;;;;;;;;5073218;28;8800;-72
2023/07/12 03:57:48;;;;;;;;;1.00;0.00;;;;;;;;5073299;28;8785;-72
2023/07/12 04:00:14;;;;;;;;;0.75;0.00;;;;;;;;5073177;28;8907;-73
2023/07/12 04:02:43;;;;;;;;;0.25;0.25;;;;;;;;5072961;28;8808;-73
2023/07/12 04:05:08;;;;;;;;;3.75;1.75;;;;;;;;5072955;28;8785;-72
2023/07/12 04:07:33;;;;;;;;;0.00;0.00;;;;;;;;5073012;28;10121;-72
2023/07/12 04:09:58;;;;;;;;;1.00;0.00;;;;;;;;5073236;28;8777;-72
2023/07/12 04:12:23;;;;;;;;;0.00;0.00;;;;;;;;5072897;28;8801;-73
2023/07/12 04:14:49;;;;;;;;;1.00;0.75;;;;;;;;5073182;28;8788;-73
2023/07/12 04:17:15;;;;;;;;;2.00;1.00;;;;;;;;5073356;28;9545;-73
2023/07/12 04:19:40;;;;;;;;;1.00;0.00;;;;;;;;5072618;28;8793;-73
2023/07/12 04:22:05;;;;;;;;;1.00;1.00;;;;;;;;5072110;28;8792;-72
2023/07/12 04:24:30;;;;;;;;;0.25;0.25;;;;;;;;5072916;28;8824;-73
2023/07/12 04:26:57;;;;;;;;;1.75;1.75;;;;;;;;5073099;28;8780;-73
2023/07/12 04:29:22;;;;;;;;;0.25;0.25;;;;;;;;5072745;28;8919;-72
2023/07/12 04:31:48;;;;;;;;;0.00;0.00;;;;;;;;5072990;28;10765;-73
2023/07/12 04:34:13;;;;;;;;;0.25;0.25;;;;;;;;5072703;28;8819;-73
2023/07/12 04:36:38;;;;;;;;;0.00;0.00;;;;;;;;5072688;28;8863;-73
2023/07/12 04:39:03;;;;;;;;;1.00;1.00;;;;;;;;5072675;28;8793;-73
2023/07/12 04:41:28;;;;;;;;;0.00;0.00;;;;;;;;5072596;28;8804;-73
2023/07/12 04:43:54;;;;;;;;;0.25;0.25;;;;;;;;5071334;28;8784;-72
2023/07/12 04:46:19;;;;;;;;;1.25;0.25;;;;;;;;5071336;28;8816;-73
2023/07/12 04:48:44;;;;;;;;;1.00;1.00;;;;;;;;5072028;28;8792;-73
2023/07/12 04:51:09;;;;;;;;;0.50;0.50;;;;;;;;5072706;28;8796;-73
2023/07/12 04:53:35;;;;;;;;;0.00;0.00;;;;;;;;5072602;28;8792;-73
2023/07/12 04:56:00;;;;;;;;;0.25;0.25;;;;;;;;5072533;28;8800;-72
2023/07/12 04:58:26;;;;;;;;;0.75;0.75;;;;;;;;5071067;28;8804;-72
2023/07/12 05:00:51;;;;;;;;;1.00;1.00;;;;;;;;5071012;28;8804;-73
2023/07/12 05:03:17;;;;;;;;;0.50;0.50;;;;;;;;5071693;28;10188;-72
2023/07/12 05:05:42;;;;;;;;;0.25;0.25;;;;;;;;5072335;28;8808;-72
2023/07/12 05:08:07;;;;;;;;;0.25;0.00;;;;;;;;5072177;28;8792;-72
2023/07/12 05:10:33;;;;;;;;;0.75;0.75;;;;;;;;5072208;28;8780;-72
2023/07/12 05:12:58;;;;;;;;;0.00;0.00;;;;;;;;5071947;28;8812;-72
2023/07/12 05:15:23;;;;;;;;;1.25;1.25;;;;;;;;5072367;28;8800;-72
2023/07/12 05:17:48;;;;;;;;;1.00;1.00;;;;;;;;5072086;28;8811;-72
2023/07/12 05:20:14;;;;;;;;;1.00;1.00;;;;;;;;5072153;28;8803;-72
2023/07/12 05:22:39;;;;;;;;;0.25;0.25;;;;;;;;5071927;28;8780;-72
2023/07/12 05:25:05;;;;;;;;;0.75;0.75;;;;;;;;5072058;28;8901;-72
2023/07/12 05:27:30;;;;;;;;;1.00;1.00;;;;;;;;5072124;28;8833;-72
2023/07/12 05:29:55;;;;;;;;;2.50;1.00;;;;;;;;5072100;28;8789;-72
2023/07/12 05:32:20;;;;;;;;;0.50;0.25;;;;;;;;5071887;28;8784;-71
2023/07/12 05:34:46;;;;;;;;;1.00;1.00;;;;;;;;5071977;28;8796;-72
2023/07/12 05:37:12;;;;;;;;;1.00;1.00;;;;;;;;5070773;28;8990;-71
2023/07/12 05:39:37;;;;;;;;;0.75;0.75;;;;;;;;5072258;28;8772;-71
2023/07/12 05:42:03;;;;;;;;;0.50;0.50;;;;;;;;5072284;28;10037;-71
2023/07/12 05:44:28;;;;;;;;;1.25;1.25;;;;;;;;5072067;28;8938;-72
2023/07/12 05:46:54;;;;;;;;;0.50;0.50;;;;;;;;5071952;28;8804;-72
2023/07/12 05:49:19;;;;;;;;;0.75;0.75;;;;;;;;5070722;28;8911;-72
2023/07/12 05:51:44;;;;;;;;;0.00;0.00;;;;;;;;5071719;28;8811;-72
2023/07/12 05:54:10;;;;;;;;;0.50;0.50;;;;;;;;5070314;28;8852;-73
2023/07/12 05:56:35;;;;;;;;;0.00;0.00;;;;;;;;5071798;28;8819;-72
2023/07/12 05:59:00;;;;;;;;;0.75;0.75;;;;;;;;5071756;28;8789;-72
2023/07/12 06:01:26;;;;;;;;;2.25;1.25;;;;;;;;5070670;28;9618;-72
2023/07/12 06:03:52;;;;;;;;;0.50;0.00;;;;;;;;5071418;28;9529;-72
2023/07/12 06:06:18;;;;;;;;;1.75;0.00;;;;;;;;5071411;28;8850;-72
2023/07/12 06:08:43;;;;;;;;;1.00;1.00;;;;;;;;5071386;28;10455;-72
2023/07/12 06:11:09;;;;;;;;;0.75;0.75;;;;;;;;5071344;28;8796;-72
2023/07/12 06:13:34;;;;;;;;;0.00;0.00;;;;;;;;5069728;28;8804;-72
2023/07/12 06:15:59;;;;;;;;;1.00;0.00;;;;;;;;5070778;28;8823;-72
2023/07/12 06:18:25;;;;;;;;;0.00;0.00;;;;;;;;5071309;28;8796;-73
2023/07/12 06:20:57;;;;;;;;;1.00;1.00;;;;;;;;5071274;28;8811;-72
2023/07/12 06:23:23;;;;;;;;;1.75;0.50;;;;;;;;5070955;28;8796;-72
2023/07/12 06:25:48;;;;;;;;;1.00;1.00;;;;;;;;5070926;28;10029;-72
2023/07/12 06:28:13;;;;;;;;;1.00;1.00;;;;;;;;5071050;28;8792;-73
2023/07/12 06:30:39;;;;;;;;;1.00;1.00;;;;;;;;5070600;28;8760;-72
2023/07/12 06:33:04;;;;;;;;;0.25;0.25;;;;;;;;5071163;28;8886;-72
2023/07/12 06:35:30;;;;;;;;;1.00;1.00;;;;;;;;5070777;28;8851;-72
2023/07/12 06:37:55;;;;;;;;;1.75;0.50;;;;;;;;5070873;28;8777;-72
2023/07/12 06:40:20;;;;;;;;;3.00;0.00;;;;;;;;5071128;28;8788;-72
2023/07/12 06:42:45;;;;;;;;;0.00;0.00;;;;;;;;5070752;28;8811;-73
2023/07/12 06:45:11;;;;;;;;;2.00;1.00;;;;;;;;5075454;28;8834;-73
2023/07/12 06:47:36;;;;;;;;;1.00;1.00;;;;;;;;5077457;28;8799;-74
2023/07/12 06:50:01;;;;;;;;;0.00;0.00;;;;;;;;5077598;28;8904;-73
2023/07/12 06:52:26;;;;;;;;;2.00;0.00;;;;;;;;5077471;28;8789;-72
2023/07/12 06:54:51;;;;;;;;;3.00;1.25;;;;;;;;5077009;28;8789;-72
2023/07/12 06:57:17;;;;;;;;;0.50;0.50;;;;;;;;5077564;28;8796;-72
2023/07/12 06:59:42;;;;;;;;;0.00;0.00;;;;;;;;5077248;28;8816;-72
2023/07/12 07:02:10;;;;;;;;;2.00;1.00;;;;;;;;5077282;28;8816;-72
2023/07/12 07:04:35;;;;;;;;;1.25;1.00;;;;;;;;5077142;28;8816;-73
2023/07/12 07:07:01;;;;;;;;;0.25;0.25;;;;;;;;5077051;28;9975;-73
2023/07/12 07:09:26;;;;;;;;;0.00;0.00;;;;;;;;5075980;28;8797;-72
2023/07/12 07:11:51;;;;;;;;;0.75;0.75;;;;;;;;5077132;28;8802;-72
2023/07/12 07:14:16;;;;;;;;;0.75;0.75;;;;;;;;5076888;28;8874;-72
2023/07/12 07:16:42;;;;;;;;;1.00;0.00;;;;;;;;5077242;28;9699;-73
2023/07/12 07:19:07;;;;;;;;;1.00;1.00;;;;;;;;5077452;28;8780;-71
2023/07/12 07:21:33;;;;;;;;;3.50;3.00;;;;;;;;5077281;28;8792;-72
2023/07/12 07:23:58;;;;;;;;;0.00;0.00;;;;;;;;5077193;28;8796;-72
2023/07/12 07:26:23;;;;;;;;;0.25;0.25;;;;;;;;5077348;28;8913;-72
2023/07/12 07:28:48;;;;;;;;;0.00;0.00;;;;;;;;5076613;28;8784;-72
2023/07/12 07:31:15;;;;;;;;;0.00;0.00;;;;;;;;5077073;28;8878;-72
2023/07/12 07:33:40;;;;;;;;;1.00;1.00;;;;;;;;5077060;28;9960;-71
2023/07/12 07:36:08;;;;;;;;;0.00;0.00;;;;;;;;5076780;28;8874;-72
2023/07/12 07:38:33;;;;;;;;;1.00;1.00;;;;;;;;5075448;28;8899;-71
2023/07/12 07:40:59;;;;;;;;;2.00;0.00;;;;;;;;5076927;28;10005;-72
2023/07/12 07:43:24;;;;;;;;;0.75;0.75;;;;;;;;5076634;28;8865;-72
2023/07/12 07:45:49;;;;;;;;;1.50;0.00;;;;;;;;5076708;28;8844;-71
2023/07/12 07:48:15;;;;;;;;;0.00;0.00;;;;;;;;5076776;28;8800;-72
2023/07/12 07:50:41;;;;;;;;;1.00;1.00;;;;;;;;5075614;28;8792;-72
2023/07/12 07:53:06;;;;;;;;;1.50;0.00;;;;;;;;5076710;28;8784;-72
2023/07/12 07:55:32;;;;;;;;;0.50;0.50;;;;;;;;5074432;28;9872;-72
2023/07/12 07:57:57;;;;;;;;;0.00;0.00;;;;;;;;5073091;28;8889;-72
2023/07/12 08:00:22;;;;;;;;;1.25;1.25;;;;;;;;5072183;28;8808;-72
2023/07/12 08:02:47;;;;;;;;;1.00;0.00;;;;;;;;5073268;28;8816;-72
2023/07/12 08:05:14;;;;;;;;;0.00;0.00;;;;;;;;5071952;28;8827;-72
2023/07/12 08:07:46;;;;;;;;;1.00;0.00;;;;;;;;5072102;28;8884;-71
2023/07/12 08:10:12;;;;;;;;;3.25;1.50;;;;;;;;5073146;28;10803;-72
2023/07/12 08:12:37;;;;;;;;;1.75;1.75;;;;;;;;5072886;28;9855;-72
2023/07/12 08:15:03;;;;;;;;;0.00;0.00;;;;;;;;5073064;28;9948;-72
2023/07/12 08:17:29;;;;;;;;;0.25;0.25;;;;;;;;5072909;28;8777;-72
2023/07/12 08:19:54;;;;;;;;;1.00;1.00;;;;;;;;5072915;28;11580;-71
2023/07/12 08:22:19;;;;;;;;;0.00;0.00;;;;;;;;5073125;28;8785;-72
2023/07/12 08:24:45;;;;;;;;;0.00;0.00;;;;;;;;5072973;28;8934;-71
2023/07/12 08:27:10;;;;;;;;;0.25;0.25;;;;;;;;5072905;28;8811;-72
2023/07/12 08:29:35;;;;;;;;;1.50;0.00;;;;;;;;5072844;28;8796;-72
2023/07/12 08:32:01;;;;;;;;;0.00;0.00;;;;;;;;5071679;28;9596;-72
2023/07/12 08:34:26;;;;;;;;;0.00;0.00;;;;;;;;5073059;28;8788;-72
2023/07/12 08:36:51;;;;;;;;;0.00;0.00;;;;;;;;5072557;28;8812;-72
2023/07/12 08:39:16;;;;;;;;;1.50;0.00;;;;;;;;5072904;28;8795;-72
2023/07/12 08:41:41;;;;;;;;;1.00;0.00;;;;;;;;5072559;28;9663;-72
2023/07/12 08:44:10;;;;;;;;;0.00;0.00;;;;;;;;5071399;28;8801;-71
2023/07/12 08:46:38;;;;;;;;;0.00;0.00;;;;;;;;5072654;28;8854;-71
2023/07/12 08:49:07;;;;;;;;;0.00;0.00;;;;;;;;5072677;28;9702;-73
2023/07/12 08:51:35;;;;;;;;;0.00;0.00;;;;;;;;5071412;28;9671;-72
2023/07/12 08:54:00;;;;;;;;;0.00;0.00;;;;;;;;5072121;28;9856;-71
2023/07/12 08:56:26;;;;;;;;;0.00;0.00;;;;;;;;5072511;28;9677;-72
2023/07/12 08:58:52;;;;;;;;;1.00;1.00;;;;;;;;5072310;28;8882;-72
2023/07/12 09:01:33;;;;;;;;;0.50;0.00;;;;;;;;5072492;28;8934;-72
2023/07/12 09:03:58;;;;;;;;;0.50;0.50;;;;;;;;5072118;28;9791;-72
2023/07/12 09:06:23;;;;;;;;;0.00;0.00;;;;;;;;5072071;28;9766;-72
2023/07/12 09:08:50;;;;;;;;;0.50;0.50;;;;;;;;5071931;28;8796;-72
2023/07/12 09:11:20;;;;;;;;;0.00;0.00;;;;;;;;5072301;28;8781;-72
2023/07/12 09:13:48;;;;;;;;;0.25;0.00;;;;;;;;5071949;28;9788;-72
2023/07/12 09:16:30;;;;;;;;;0.00;0.00;;;;;;;;5072073;28;9777;-71
2023/07/12 09:18:57;;;;;;;;;0.50;0.50;;;;;;;;5071924;28;9704;-72
2023/07/12 09:21:24;;;;;;;;;0.00;0.00;;;;;;;;5072060;28;9780;-72
2023/07/12 09:23:51;;;;;;;;;0.00;0.00;;;;;;;;5071726;28;9692;-72
2023/07/12 09:26:19;;;;;;;;;0.00;0.00;;;;;;;;5070599;28;9837;-72
2023/07/12 09:28:44;;;;;;;;;0.00;0.00;;;;;;;;5070666;28;9883;-71
2023/07/12 09:31:11;;;;;;;;;0.00;0.00;;;;;;;;5072290;28;9740;-72
2023/07/12 09:33:36;;;;;;;;;0.00;0.00;;;;;;;;5072138;28;8780;-72
2023/07/12 09:36:05;;;;;;;;;1.25;0.50;;;;;;;;5071944;28;9821;-72
2023/07/12 09:38:34;;;;;;;;;0.25;0.25;;;;;;;;5071767;28;8792;-72
2023/07/12 09:41:08;;;;;;;;;0.00;0.00;;;;;;;;5071701;28;9836;-72
2023/07/12 09:43:36;;;;;;;;;0.25;0.25;;;;;;;;5071785;28;9878;-72
2023/07/12 09:46:10;;;;;;;;;1.00;0.00;;;;;;;;5071878;28;9813;-72
2023/07/12 09:48:45;;;;;;;;;0.50;0.50;;;;;;;;5070446;28;9794;-73
2023/07/12 09:51:10;;;;;;;;;0.00;0.00;;;;;;;;5070365;28;9886;-72
2023/07/12 09:53:46;;;;;;;;;0.75;0.75;;;;;;;;5071373;28;9892;-72
2023/07/12 09:56:17;;;;;;;;;0.25;0.25;;;;;;;;5071943;28;8785;-73
2023/07/12 09:58:47;;;;;;;;;0.25;0.25;;;;;;;;5072310;28;9886;-72
2023/07/12 10:01:18;;;;;;;;;0.00;0.00;;;;;;;;5072457;28;9788;-73
2023/07/12 10:03:48;;;;;;;;;0.25;0.00;;;;;;;;5072954;28;9868;-72
2023/07/12 10:06:36;;;;;;;;;0.00;0.00;;;;;;;;5072372;28;9849;-72
2023/07/12 10:09:03;;;;;;;;;0.25;0.25;;;;;;;;5071267;28;9688;-73
2023/07/12 10:11:43;;;;;;;;;0.75;0.00;;;;;;;;5071471;28;9775;-72
2023/07/12 10:14:10;;;;;;;;;0.00;0.00;;;;;;;;5066619;28;9767;-72
2023/07/12 10:16:40;;;;;;;;;0.00;0.00;;;;;;;;5071172;28;9924;-72
2023/07/12 10:19:25;;;;;;;;;0.00;0.00;;;;;;;;5070682;28;9786;-73
2023/07/12 10:21:53;;;;;;;;;0.00;0.00;;;;;;;;5070470;28;9865;-72
2023/07/12 10:24:20;;;;;;;;;1.75;0.00;;;;;;;;5071098;28;10637;-73
2023/07/12 10:26:47;;;;;;;;;0.00;0.00;;;;;;;;5070933;28;9680;-73
2023/07/12 10:29:15;;;;;;;;;0.00;0.00;;;;;;;;5069675;28;9928;-72
2023/07/12 10:31:46;;;;;;;;;0.25;0.00;;;;;;;;5070842;28;9935;-73
2023/07/12 10:34:14;;;;;;;;;0.00;0.00;;;;;;;;5070966;28;9950;-73
2023/07/12 10:36:40;;;;;;;;;0.00;0.00;;;;;;;;5070806;28;9856;-73
2023/07/12 10:39:06;;;;;;;;;0.50;0.00;;;;;;;;5071067;28;9960;-72
2023/07/12 10:41:39;;;;;;;;;1.25;1.00;;;;;;;;5070745;28;8915;-73
2023/07/12 10:44:06;;;;;;;;;0.00;0.00;;;;;;;;5069330;28;8792;-72
2023/07/12 10:46:36;;;;;;;;;0.00;0.00;;;;;;;;5070677;28;9925;-73
2023/07/12 10:49:03;;;;;;;;;0.00;0.00;;;;;;;;5071048;28;9861;-73
2023/07/12 10:51:42;;;;;;;;;0.00;0.00;;;;;;;;5070473;28;9927;-72
2023/07/12 10:54:25;;;;;;;;;0.25;0.00;;;;;;;;5070708;28;9774;-72
2023/07/12 10:56:54;;;;;;;;;0.00;0.00;;;;;;;;5070854;28;9924;-72
2023/07/12 10:59:30;;;;;;;;;0.75;0.75;;;;;;;;5070439;28;9938;-72
2023/07/12 11:01:56;;;;;;;;;0.00;0.00;;;;;;;;5070269;28;10840;-72
2023/07/12 11:04:47;;;;;;;;;2.00;0.00;;;;;;;;5070602;28;9970;-72
2023/07/12 11:07:14;;;;;;;;;0.00;0.00;;;;;;;;5067722;28;8795;-72
2023/07/12 11:09:42;;;;;;;;;0.00;0.00;;;;;;;;5070596;28;10620;-72
2023/07/12 11:12:08;;;;;;;;;0.00;0.00;;;;;;;;5070283;28;9957;-73
2023/07/12 11:14:36;;;;;;;;;1.50;0.00;;;;;;;;5070419;28;9945;-72
2023/07/12 11:17:13;;;;;;;;;0.00;0.00;;;;;;;;5069213;28;8804;-72
2023/07/12 11:19:38;;;;;;;;;2.00;0.00;;;;;;;;5070201;28;10071;-72
2023/07/12 11:22:10;;;;;;;;;0.00;0.00;;;;;;;;5070385;28;9898;-72
2023/07/12 11:24:41;;;;;;;;;0.00;0.00;;;;;;;;5070415;28;8765;-72
2023/07/12 11:27:24;;;;;;;;;0.00;0.00;;;;;;;;5070317;28;9939;-72
2023/07/12 11:29:53;;;;;;;;;0.00;0.00;;;;;;;;5070917;28;9994;-72
2023/07/12 11:32:32;;;;;;;;;1.00;0.00;;;;;;;;5074068;28;9875;-72
2023/07/12 11:35:10;;;;;;;;;2.00;0.00;;;;;;;;5073272;28;9928;-72
2023/07/12 11:37:43;;;;;;;;;0.00;0.00;;;;;;;;5073747;28;10106;-72
2023/07/12 11:40:16;;;;;;;;;0.00;0.00;;;;;;;;5073909;28;10024;-72
2023/07/12 11:42:41;;;;;;;;;0.00;0.00;;;;;;;;5073913;28;10034;-73
2023/07/12 11:45:11;;;;;;;;;0.00;0.00;;;;;;;;5073727;28;10129;-72
2023/07/12 11:47:39;;;;;;;;;0.50;0.50;;;;;;;;5073332;28;8773;-72
2023/07/12 11:50:05;;;;;;;;;0.00;0.00;;;;;;;;5073538;28;9982;-72
2023/07/12 11:52:31;;;;;;;;;1.25;0.00;;;;;;;;5073216;28;9853;-71
2023/07/12 11:54:56;;;;;;;;;0.00;0.00;;;;;;;;5073261;28;9886;-71
2023/07/12 11:57:21;;;;;;;;;0.00;0.00;;;;;;;;5073362;28;8902;-71
2023/07/12 11:59:48;;;;;;;;;1.00;0.00;;;;;;;;5072092;28;8804;-72
2023/07/12 12:02:14;;;;;;;;;0.00;0.00;;;;;;;;5073220;28;8793;-72
2023/07/12 12:04:39;;;;;;;;;0.75;0.00;;;;;;;;5072807;28;9958;-72
2023/07/12 12:07:24;;;;;;;;;0.00;0.00;;;;;;;;5073299;28;10118;-72
2023/07/12 12:09:50;;;;;;;;;0.00;0.00;;;;;;;;5073411;28;8873;-72
2023/07/12 12:12:16;;;;;;;;;0.00;0.00;;;;;;;;5072950;28;9871;-72
2023/07/12 12:14:42;;;;;;;;;0.00;0.00;;;;;;;;5053128;28;8795;-71
2023/07/12 12:17:37;;;;;;;;;0.00;0.00;;;;;;;;5052984;28;9920;-71
2023/07/12 12:20:16;;;;;;;;;0.00;0.00;;;;;;;;5035607;28;8783;-71
2023/07/12 12:22:42;;;;;;;;;0.00;0.00;;;;;;;;5052591;28;10033;-72
2023/07/12 12:25:16;;;;;;;;;0.00;0.00;;;;;;;;5052769;28;10780;-73
2023/07/12 12:27:43;;;;;;;;;1.00;0.00;;;;;;;;5052897;28;9860;-72
2023/07/12 12:30:14;;;;;;;;;2.00;0.00;;;;;;;;5052851;28;9929;-73
2023/07/12 12:32:39;;;;;;;;;0.75;0.00;;;;;;;;5051211;28;10024;-72
2023/07/12 12:35:10;;;;;;;;;0.00;0.00;;;;;;;;5052657;28;9911;-72
2023/07/12 12:37:35;;;;;;;;;0.00;0.00;;;;;;;;5051375;28;8791;-72
2023/07/12 12:40:01;;;;;;;;;1.00;1.00;;;;;;;;5051067;28;10266;-72
2023/07/12 12:42:28;;;;;;;;;0.25;0.25;;;;;;;;5050449;28;8787;-72
2023/07/12 12:44:55;;;;;;;;;0.00;0.00;;;;;;;;5052488;28;10041;-73
2023/07/12 12:47:21;;;;;;;;;0.25;0.00;;;;;;;;5051174;28;9872;-72
2023/07/12 12:49:47;;;;;;;;;0.00;0.00;;;;;;;;5052591;28;9962;-72
2023/07/12 12:52:26;;;;;;;;;0.00;0.00;;;;;;;;5052676;28;9705;-73
2023/07/12 12:54:52;;;;;;;;;0.00;0.00;;;;;;;;5052349;28;8821;-73
2023/07/12 12:57:18;;;;;;;;;0.00;0.00;;;;;;;;5052658;28;10551;-73
2023/07/12 12:59:43;;;;;;;;;0.00;0.00;;;;;;;;5052751;28;8795;-72
2023/07/12 13:02:13;;;;;;;;;0.50;0.00;;;;;;;;5052158;28;8830;-73
2023/07/12 13:04:38;;;;;;;;;0.00;0.00;;;;;;;;5052463;28;8883;-72
2023/07/12 13:07:04;;;;;;;;;0.00;0.00;;;;;;;;5050728;28;9994;-72
2023/07/12 13:09:31;;;;;;;;;1.00;0.00;;;;;;;;5051208;28;8880;-73
2023/07/12 13:11:56;;;;;;;;;0.00;0.00;;;;;;;;5054684;28;8865;-72
2023/07/12 13:14:22;;;;;;;;;0.00;0.00;;;;;;;;5072159;28;10022;-72
2023/07/12 13:16:47;;;;;;;;;0.00;0.00;;;;;;;;5071799;28;8800;-73
2023/07/12 13:19:13;;;;;;;;;0.00;0.00;;;;;;;;5072027;28;8870;-73
2023/07/12 13:21:38;;;;;;;;;0.00;0.00;;;;;;;;5070802;28;9091;-73
2023/07/12 13:24:04;;;;;;;;;0.00;0.00;;;;;;;;5072026;28;8803;-72
2023/07/12 13:26:34;;;;;;;;;0.00;0.00;;;;;;;;5072048;28;8831;-73
2023/07/12 13:28:59;;;;;;;;;0.00;0.00;;;;;;;;5072062;28;8781;-73
2023/07/12 13:31:25;;;;;;;;;0.00;0.00;;;;;;;;5071767;28;9949;-73
2023/07/12 13:33:50;;;;;;;;;0.00;0.00;;;;;;;;5070728;28;8816;-74
2023/07/12 13:36:25;;;;;;;;;0.00;0.00;;;;;;;;5071909;28;8804;-73
2023/07/12 13:38:51;;;;;;;;;1.50;0.00;;;;;;;;5072057;28;8811;-73
2023/07/12 13:41:16;;;;;;;;;0.00;0.00;;;;;;;;5072072;28;9957;-72
2023/07/12 13:43:41;;;;;;;;;0.00;0.00;;;;;;;;5071867;28;8789;-73
2023/07/12 13:46:13;;;;;;;;;0.00;0.00;;;;;;;;5071622;28;9670;-72
2023/07/12 13:48:39;;;;;;;;;0.00;0.00;;;;;;;;5071685;28;8857;-72
2023/07/12 13:51:04;;;;;;;;;1.25;0.00;;;;;;;;5070282;28;10132;-72
2023/07/12 13:53:29;;;;;;;;;0.00;0.00;;;;;;;;5070464;28;8784;-72
2023/07/12 13:55:55;;;;;;;;;0.00;0.00;;;;;;;;5070419;28;8800;-72
2023/07/12 13:58:20;;;;;;;;;0.50;0.50;;;;;;;;5072302;28;8792;-72
2023/07/12 14:00:45;;;;;;;;;0.00;0.00;;;;;;;;5071359;28;8788;-72
2023/07/12 14:03:11;;;;;;;;;0.50;0.00;;;;;;;;5070030;28;8820;-72
2023/07/12 14:05:36;;;;;;;;;0.25;0.25;;;;;;;;5071741;28;8820;-72
2023/07/12 14:08:01;;;;;;;;;0.00;0.00;;;;;;;;5071533;28;8780;-72
2023/07/12 14:10:27;;;;;;;;;0.75;0.00;;;;;;;;5070198;28;8792;-72
2023/07/12 14:12:52;;;;;;;;;0.25;0.00;;;;;;;;5070314;28;8823;-71
2023/07/12 14:15:22;;;;;;;;;1.00;0.50;;;;;;;;5071914;28;8799;-71
2023/07/12 14:17:47;;;;;;;;;0.00;0.00;;;;;;;;5072884;28;8792;-72
2023/07/12 14:20:12;;;;;;;;;0.00;0.00;;;;;;;;5073154;28;9888;-73
2023/07/12 14:22:38;;;;;;;;;0.00;0.00;;;;;;;;5071583;28;8817;-74
2023/07/12 14:25:03;;;;;;;;;0.00;0.00;;;;;;;;5072716;28;8845;-72
2023/07/12 14:27:34;;;;;;;;;0.75;0.75;;;;;;;;5071855;28;9009;-73
2023/07/12 14:30:01;;;;;;;;;0.00;0.00;;;;;;;;5071176;28;8838;-72
2023/07/12 14:32:28;;;;;;;;;0.00;0.00;;;;;;;;5071125;28;9891;-72
2023/07/12 14:34:53;;;;;;;;;0.00;0.00;;;;;;;;5070948;28;9951;-72
2023/07/12 14:37:19;;;;;;;;;0.00;0.00;;;;;;;;5070970;28;10086;-72
2023/07/12 14:39:45;;;;;;;;;0.00;0.00;;;;;;;;5071125;28;8780;-72
2023/07/12 14:42:24;;;;;;;;;0.00;0.00;;;;;;;;5069528;28;10698;-72
2023/07/12 14:44:49;;;;;;;;;0.75;0.25;;;;;;;;5069390;28;8800;-73
2023/07/12 14:47:15;;;;;;;;;2.00;2.00;;;;;;;;5070915;28;9940;-73
2023/07/12 14:49:41;;;;;;;;;1.00;1.00;;;;;;;;5070707;28;8805;-73
2023/07/12 14:52:12;;;;;;;;;0.00;0.00;;;;;;;;5070792;28;10627;-72